createdAt,value
2023-03-12T00:00:34.219Z,66.95
2023-03-12T00:01:35.123Z,66.95
2023-03-12T00:02:34.208Z,66.93
2023-03-12T00:03:34.265Z,66.93
2023-03-12T00:04:34.184Z,66.91
2023-03-12T00:05:34.139Z,66.89
2023-03-12T00:06:35.071Z,66.89
2023-03-12T00:07:34.126Z,66.86
2023-03-12T00:08:34.140Z,66.87
2023-03-12T00:09:34.140Z,66.87
2023-03-12T00:10:34.102Z,66.88
2023-03-12T00:11:34.113Z,66.90
2023-03-12T00:12:35.011Z,66.90
2023-03-12T00:13:34.089Z,66.90
2023-03-12T00:14:34.080Z,66.91
2023-03-12T00:15:34.059Z,66.93
2023-03-12T00:16:34.000Z,66.92
2023-03-12T00:17:34.006Z,66.89
2023-03-12T00:18:34.978Z,66.87
2023-03-12T00:19:34.036Z,66.85
2023-03-12T00:20:33.967Z,66.83
2023-03-12T00:21:34.005Z,66.85
2023-03-12T00:22:33.979Z,66.84
2023-03-12T00:23:34.858Z,66.84
2023-03-12T00:24:34.010Z,66.84
2023-03-12T00:25:33.926Z,66.82
2023-03-12T00:26:33.891Z,66.81
2023-03-12T00:27:33.871Z,66.81
2023-03-12T00:28:33.858Z,66.82
2023-03-12T00:29:34.887Z,66.84
2023-03-12T00:30:33.898Z,66.84
2023-03-12T00:31:33.892Z,66.83
2023-03-12T00:32:33.875Z,66.85
2023-03-12T00:33:33.885Z,66.86
2023-03-12T00:34:33.810Z,66.85
2023-03-12T00:35:34.786Z,66.85
2023-03-12T00:36:33.806Z,66.87
2023-03-12T00:37:33.783Z,66.85
2023-03-12T00:38:33.722Z,66.85
2023-03-12T00:39:33.760Z,66.83
2023-03-12T00:40:34.670Z,66.82
2023-03-12T00:41:33.703Z,66.82
2023-03-12T00:42:33.668Z,66.83
2023-03-12T00:43:33.667Z,66.84
2023-03-12T00:44:33.767Z,66.85
2023-03-12T00:45:34.806Z,66.85
2023-03-12T00:46:33.690Z,66.84
2023-03-12T00:47:33.619Z,66.84
2023-03-12T00:48:33.639Z,66.82
2023-03-12T00:49:33.583Z,66.82
2023-03-12T00:50:34.513Z,66.82
2023-03-12T00:51:33.576Z,66.82
2023-03-12T00:52:33.567Z,66.80
2023-03-12T00:53:33.595Z,66.77
2023-03-12T00:54:33.549Z,66.75
2023-03-12T00:55:33.505Z,66.73
2023-03-12T00:56:34.485Z,66.69
2023-03-12T00:57:33.501Z,66.67
2023-03-12T00:58:33.498Z,66.64
2023-03-12T00:59:33.477Z,66.64
2023-03-12T01:00:33.507Z,66.64
2023-03-12T01:01:34.388Z,66.65
2023-03-12T01:02:33.444Z,66.64
2023-03-12T01:03:33.411Z,66.64
2023-03-12T01:04:33.426Z,66.61
2023-03-12T01:05:35.133Z,66.60
2023-03-12T01:06:34.291Z,66.58
2023-03-12T01:07:33.382Z,66.57
2023-03-12T01:08:33.380Z,66.56
2023-03-12T01:09:33.345Z,66.53
2023-03-12T01:10:33.327Z,66.52
2023-03-12T01:11:34.242Z,66.53
2023-03-12T01:12:33.326Z,66.51
2023-03-12T01:13:33.312Z,66.52
2023-03-12T01:14:33.338Z,66.50
2023-03-12T01:15:33.289Z,66.49
2023-03-12T01:16:33.296Z,66.47
2023-03-12T01:17:34.184Z,66.45
2023-03-12T01:18:33.235Z,66.45
2023-03-12T01:19:33.248Z,66.45
2023-03-12T01:20:33.197Z,66.45
2023-03-12T01:21:33.197Z,66.45
2023-03-12T01:22:33.556Z,66.46
2023-03-12T01:23:34.080Z,66.46
2023-03-12T01:24:33.181Z,66.46
2023-03-12T01:25:33.165Z,66.47
2023-03-12T01:26:33.139Z,66.45
2023-03-12T01:27:33.142Z,66.46
2023-03-12T01:28:34.037Z,66.45
2023-03-12T01:29:33.103Z,66.45
2023-03-12T01:30:33.065Z,66.48
2023-03-12T01:31:33.147Z,66.52
2023-03-12T01:32:33.124Z,66.55
2023-03-12T01:33:33.033Z,66.59
2023-03-12T01:34:33.971Z,66.64
2023-03-12T01:35:33.155Z,66.65
2023-03-12T01:36:33.039Z,66.64
2023-03-12T01:37:33.018Z,66.63
2023-03-12T01:38:32.969Z,66.63
2023-03-12T01:39:32.955Z,66.60
2023-03-12T01:40:33.893Z,66.60
2023-03-12T01:41:32.933Z,66.61
2023-03-12T01:42:32.928Z,66.61
2023-03-12T01:43:32.896Z,66.62
2023-03-12T01:44:32.920Z,66.62
2023-03-12T01:45:32.906Z,66.62
2023-03-12T01:46:33.796Z,66.60
2023-03-12T01:47:32.890Z,66.60
2023-03-12T01:48:32.844Z,66.60
2023-03-12T01:49:32.875Z,66.60
2023-03-12T01:50:32.824Z,66.61
2023-03-12T01:51:33.715Z,66.59
2023-03-12T01:52:32.775Z,66.58
2023-03-12T01:53:32.808Z,66.57
2023-03-12T01:54:32.776Z,66.52
2023-03-12T01:55:32.745Z,66.51
2023-03-12T01:56:32.730Z,66.51
2023-03-12T01:57:33.636Z,66.50
2023-03-12T01:58:32.733Z,66.48
2023-03-12T01:59:32.712Z,66.45
2023-03-12T02:00:32.695Z,66.42
2023-03-12T02:01:32.685Z,66.41
2023-03-12T02:02:32.736Z,66.40
2023-03-12T02:03:33.655Z,66.40
2023-03-12T02:04:32.693Z,66.40
2023-03-12T02:05:32.639Z,66.40
2023-03-12T02:06:32.596Z,66.39
2023-03-12T02:07:32.594Z,66.38
2023-03-12T02:08:33.529Z,66.37
2023-03-12T02:09:32.563Z,66.38
2023-03-12T02:10:32.552Z,66.40
2023-03-12T02:11:32.552Z,66.40
2023-03-12T02:12:32.558Z,66.41
2023-03-12T02:13:33.458Z,66.40
2023-03-12T02:14:32.503Z,66.40
2023-03-12T02:15:32.512Z,66.41
2023-03-12T02:16:32.562Z,66.44
2023-03-12T02:17:32.486Z,66.45
2023-03-12T02:18:32.479Z,66.47
2023-03-12T02:19:33.383Z,66.50
2023-03-12T02:20:32.544Z,66.48
2023-03-12T02:21:32.442Z,66.45
2023-03-12T02:22:32.396Z,66.46
2023-03-12T02:23:32.421Z,66.47
2023-03-12T02:24:33.492Z,66.47
2023-03-12T02:25:32.405Z,66.47
2023-03-12T02:26:32.380Z,66.47
2023-03-12T02:27:32.394Z,66.46
2023-03-12T02:28:32.348Z,66.47
2023-03-12T02:29:32.329Z,66.50
2023-03-12T02:30:33.271Z,66.49
2023-03-12T02:31:32.352Z,66.50
2023-03-12T02:32:32.297Z,66.51
2023-03-12T02:33:32.268Z,66.53
2023-03-12T02:34:32.282Z,66.54
2023-03-12T02:35:33.211Z,66.51
2023-03-12T02:36:32.247Z,66.52
2023-03-12T02:37:32.208Z,66.52
2023-03-12T02:38:32.188Z,66.54
2023-03-12T02:39:32.195Z,66.55
2023-03-12T02:40:32.240Z,66.55
2023-03-12T02:41:33.099Z,66.54
2023-03-12T02:42:32.238Z,66.61
2023-03-12T02:43:32.135Z,66.65
2023-03-12T02:44:32.128Z,66.69
2023-03-12T02:45:32.105Z,66.72
2023-03-12T02:46:32.106Z,66.73
2023-03-12T02:47:33.096Z,66.73
2023-03-12T02:48:32.064Z,66.71
2023-03-12T02:49:32.134Z,66.69
2023-03-12T02:50:32.045Z,66.66
2023-03-12T02:51:32.076Z,66.63
2023-03-12T02:52:32.060Z,66.63
2023-03-12T02:53:32.994Z,66.65
2023-03-12T02:54:32.028Z,66.66
2023-03-12T02:55:31.982Z,66.68
2023-03-12T02:56:31.997Z,66.69
2023-03-12T02:57:31.965Z,66.71
2023-03-12T02:58:31.954Z,66.73
2023-03-12T02:59:32.873Z,66.76
2023-03-12T03:00:31.943Z,66.74
2023-03-12T03:01:31.956Z,66.73
2023-03-12T03:02:31.899Z,66.74
2023-03-12T03:03:31.894Z,66.73
2023-03-12T03:04:31.956Z,66.71
2023-03-12T03:05:32.796Z,66.71
2023-03-12T03:06:31.853Z,66.71
2023-03-12T03:07:31.842Z,66.72
2023-03-12T03:08:31.831Z,66.72
2023-03-12T03:09:31.797Z,66.74
2023-03-12T03:10:32.760Z,66.76
2023-03-12T03:11:31.782Z,66.78
2023-03-12T03:12:31.772Z,66.81
2023-03-12T03:14:15.620Z,66.68
2023-03-12T03:15:16.475Z,66.74
2023-03-12T03:16:15.587Z,66.89
2023-03-12T03:17:15.594Z,66.95
2023-03-12T03:18:15.744Z,66.98
2023-03-12T03:19:15.450Z,67.01
2023-03-12T03:20:15.467Z,67.03
2023-03-12T03:21:16.394Z,67.01
2023-03-12T03:22:15.666Z,67.02
2023-03-12T03:23:15.424Z,66.98
2023-03-12T03:24:15.470Z,66.98
2023-03-12T03:25:15.901Z,66.96
2023-03-12T03:26:16.322Z,66.94
2023-03-12T03:27:15.367Z,66.93
2023-03-12T03:28:15.378Z,66.91
2023-03-12T03:29:15.385Z,66.92
2023-03-12T03:30:15.313Z,66.94
2023-03-12T03:31:16.316Z,66.94
2023-03-12T03:32:15.374Z,66.94
2023-03-12T03:33:15.309Z,66.94
2023-03-12T03:34:15.347Z,66.93
2023-03-12T03:35:15.270Z,66.95
2023-03-12T03:36:16.192Z,66.96
2023-03-12T03:37:15.264Z,66.97
2023-03-12T03:38:15.275Z,66.99
2023-03-12T03:39:15.223Z,67.03
2023-03-12T03:40:15.212Z,67.04
2023-03-12T03:41:16.169Z,67.05
2023-03-12T03:42:15.156Z,67.05
2023-03-12T03:43:15.160Z,67.03
2023-03-12T03:44:15.172Z,67.03
2023-03-12T03:45:15.178Z,67.03
2023-03-12T03:46:15.164Z,67.05
2023-03-12T03:47:16.996Z,67.07
2023-03-12T03:48:15.103Z,67.05
2023-03-12T03:49:15.138Z,67.03
2023-03-12T03:50:15.120Z,67.01
2023-03-12T03:51:15.071Z,67.01
2023-03-12T03:52:16.027Z,67.00
2023-03-12T03:53:15.034Z,67.02
2023-03-12T03:54:15.095Z,67.00
2023-03-12T03:55:15.004Z,67.02
2023-03-12T03:56:15.018Z,67.02
2023-03-12T03:57:15.927Z,67.02
2023-03-12T03:58:15.025Z,67.02
2023-03-12T03:59:15.019Z,67.02
2023-03-12T04:00:14.982Z,67.01
2023-03-12T04:01:14.964Z,67.00
2023-03-12T04:02:14.925Z,67.02
2023-03-12T04:03:15.883Z,67.02
2023-03-12T04:04:14.920Z,67.03
2023-03-12T04:05:14.960Z,67.02
2023-03-12T04:06:14.870Z,67.02
2023-03-12T04:07:14.872Z,67.02
2023-03-12T04:08:14.920Z,67.02
2023-03-12T04:09:15.768Z,67.01
2023-03-12T04:10:14.870Z,66.99
2023-03-12T04:11:14.902Z,66.99
2023-03-12T04:12:14.862Z,67.02
2023-03-12T04:13:15.021Z,67.02
2023-03-12T04:14:15.716Z,67.02
2023-03-12T04:15:14.876Z,67.03
2023-03-12T04:16:14.808Z,67.05
2023-03-12T04:17:14.814Z,67.07
2023-03-12T04:18:14.792Z,67.08
2023-03-12T04:19:15.672Z,67.09
2023-03-12T04:20:15.001Z,67.10
2023-03-12T04:21:14.674Z,67.12
2023-03-12T04:22:14.727Z,67.13
2023-03-12T04:23:14.681Z,67.12
2023-03-12T04:24:14.682Z,67.15
2023-03-12T04:25:15.648Z,67.17
2023-03-12T04:26:14.637Z,67.16
2023-03-12T04:27:14.674Z,67.14
2023-03-12T04:28:14.654Z,67.15
2023-03-12T04:29:14.606Z,67.13
2023-03-12T04:30:16.508Z,67.14
2023-03-12T04:31:14.600Z,67.15
2023-03-12T04:33:38.244Z,67.12
2023-03-12T04:34:40.193Z,67.15
2023-03-12T04:35:39.101Z,67.18
2023-03-12T04:36:38.179Z,67.18
2023-03-12T04:37:38.127Z,67.19
2023-03-12T04:38:38.136Z,67.17
2023-03-12T04:39:38.203Z,67.15
2023-03-12T04:40:38.134Z,67.16
2023-03-12T04:41:39.024Z,67.16
2023-03-12T04:42:38.079Z,67.16
2023-03-12T04:43:38.129Z,67.15
2023-03-12T04:44:38.108Z,67.14
2023-03-12T04:45:38.214Z,67.15
2023-03-12T04:46:38.063Z,67.14
2023-03-12T04:47:38.941Z,67.15
2023-03-12T04:48:38.090Z,67.15
2023-03-12T04:49:37.948Z,67.14
2023-03-12T04:50:38.038Z,67.13
2023-03-12T04:51:37.977Z,67.13
2023-03-12T04:52:37.938Z,67.15
2023-03-12T04:53:38.894Z,67.17
2023-03-12T04:54:38.023Z,67.17
2023-03-12T04:55:37.912Z,67.19
2023-03-12T04:56:37.896Z,67.17
2023-03-12T04:57:37.910Z,67.16
2023-03-12T04:58:38.824Z,67.12
2023-03-12T04:59:37.904Z,67.10
2023-03-12T05:00:37.952Z,67.12
2023-03-12T05:01:37.834Z,67.13
2023-03-12T05:02:37.915Z,67.10
2023-03-12T05:03:38.853Z,67.11
2023-03-12T05:04:37.830Z,67.11
2023-03-12T05:05:37.938Z,67.12
2023-03-12T05:06:37.785Z,67.12
2023-03-12T05:07:37.795Z,67.12
2023-03-12T05:08:37.741Z,67.13
2023-03-12T05:09:38.675Z,67.11
2023-03-12T05:10:37.765Z,67.11
2023-03-12T05:11:39.705Z,67.12
2023-03-12T05:12:37.676Z,67.10
2023-03-12T05:13:37.690Z,67.11
2023-03-12T05:14:38.611Z,67.12
2023-03-12T05:15:37.680Z,67.12
2023-03-12T05:16:37.649Z,67.13
2023-03-12T05:17:37.607Z,67.12
2023-03-12T05:18:37.602Z,67.11
2023-03-12T05:19:38.561Z,67.13
2023-03-12T05:20:37.595Z,67.14
2023-03-12T05:21:38.575Z,67.15
2023-03-12T05:22:37.569Z,67.15
2023-03-12T05:23:37.549Z,67.15
2023-03-12T05:24:37.581Z,67.15
2023-03-12T05:25:38.446Z,67.16
2023-03-12T05:26:37.540Z,67.15
2023-03-12T05:27:37.498Z,67.15
2023-03-12T05:28:37.544Z,67.15
2023-03-12T05:29:37.491Z,67.15
2023-03-12T05:30:37.479Z,67.16
2023-03-12T05:31:38.451Z,67.17
2023-03-12T05:32:37.478Z,67.15
2023-03-12T05:33:37.494Z,67.15
2023-03-12T05:34:37.416Z,67.13
2023-03-12T05:35:37.479Z,67.15
2023-03-12T05:36:37.447Z,67.15
2023-03-12T05:37:38.377Z,67.17
2023-03-12T05:38:37.334Z,67.17
2023-03-12T05:39:37.393Z,67.17
2023-03-12T05:40:37.357Z,67.15
2023-03-12T05:41:37.347Z,67.17
2023-03-12T05:42:38.213Z,67.17
2023-03-12T05:43:37.705Z,67.12
2023-03-12T05:46:17.792Z,67.01
2023-03-12T05:47:20.426Z,66.96
2023-03-12T05:48:18.554Z,66.97
2023-03-12T05:49:17.675Z,66.95
2023-03-12T05:50:17.614Z,66.90
2023-03-12T05:51:17.606Z,66.90
2023-03-12T05:52:17.591Z,66.87
2023-03-12T05:53:17.629Z,66.88
2023-03-12T05:54:18.488Z,66.85
2023-03-12T05:55:17.542Z,66.84
2023-03-12T05:56:17.517Z,66.84
2023-03-12T05:57:17.585Z,66.83
2023-03-12T05:58:17.504Z,66.75
2023-03-12T05:59:17.510Z,66.72
2023-03-12T06:00:18.427Z,66.64
2023-03-12T06:01:17.476Z,66.59
2023-03-12T06:02:18.553Z,66.56
2023-03-12T06:03:17.547Z,66.55
2023-03-12T06:04:17.465Z,66.51
2023-03-12T06:05:17.589Z,66.45
2023-03-12T06:06:18.310Z,66.40
2023-03-12T06:07:17.378Z,66.36
2023-03-12T06:08:17.377Z,66.33
2023-03-12T06:09:17.404Z,66.33
2023-03-12T06:10:17.361Z,66.30
2023-03-12T06:11:17.651Z,66.24
2023-03-12T06:12:18.341Z,66.18
2023-03-12T06:13:17.303Z,66.14
2023-03-12T06:14:17.320Z,66.11
2023-03-12T06:15:17.321Z,66.07
2023-03-12T06:16:17.299Z,66.05
2023-03-12T06:17:17.304Z,65.97
2023-03-12T06:18:18.218Z,65.86
2023-03-12T06:19:17.438Z,65.78
2023-03-12T06:20:17.238Z,65.70
2023-03-12T06:21:17.225Z,65.58
2023-03-12T06:22:17.210Z,65.51
2023-03-12T06:23:20.370Z,65.44
2023-03-12T06:24:17.180Z,65.36
2023-03-12T06:25:17.173Z,65.31
2023-03-12T06:26:17.208Z,65.26
2023-03-12T06:27:17.159Z,65.21
2023-03-12T06:28:17.145Z,65.16
2023-03-12T06:29:18.075Z,65.09
2023-03-12T06:30:17.089Z,65.04
2023-03-12T06:31:17.135Z,64.93
2023-03-12T06:32:17.312Z,64.82
2023-03-12T06:33:17.081Z,64.74
2023-03-12T06:34:17.081Z,64.69
2023-03-12T06:35:17.975Z,64.65
2023-03-12T06:36:17.060Z,64.60
2023-03-12T06:37:17.049Z,64.59
2023-03-12T06:38:17.000Z,64.60
2023-03-12T06:39:17.059Z,64.57
2023-03-12T06:40:17.957Z,64.52
2023-03-12T06:41:16.996Z,64.39
2023-03-12T06:42:16.983Z,64.28
2023-03-12T06:43:16.929Z,64.19
2023-03-12T06:44:16.974Z,64.08
2023-03-12T06:45:18.099Z,63.95
2023-03-12T06:46:17.894Z,63.86
2023-03-12T06:47:17.802Z,63.78
2023-03-12T06:49:39.665Z,63.48
2023-03-12T06:50:39.692Z,63.63
2023-03-12T06:51:45.984Z,63.74
2023-03-12T06:52:39.607Z,63.84
2023-03-12T06:53:42.195Z,63.95
2023-03-12T06:54:39.717Z,63.97
2023-03-12T06:55:39.593Z,63.90
2023-03-12T06:56:39.656Z,63.72
2023-03-12T06:57:40.484Z,63.66
2023-03-12T06:58:39.641Z,63.66
2023-03-12T06:59:39.578Z,63.67
2023-03-12T07:00:39.553Z,63.78
2023-03-12T07:01:43.743Z,63.85
2023-03-12T07:02:39.500Z,63.89
2023-03-12T07:03:40.429Z,63.93
2023-03-12T07:04:39.616Z,63.91
2023-03-12T07:05:39.506Z,63.73
2023-03-12T07:06:39.488Z,63.57
2023-03-12T07:07:39.492Z,63.42
2023-03-12T07:08:40.392Z,63.23
2023-03-12T07:09:39.530Z,63.05
2023-03-12T07:10:39.395Z,62.97
2023-03-12T07:11:39.426Z,63.03
2023-03-12T07:12:39.429Z,63.17
2023-03-12T07:13:39.450Z,63.28
2023-03-12T07:14:40.413Z,63.33
2023-03-12T07:15:39.392Z,63.38
2023-03-12T07:16:39.431Z,63.45
2023-03-12T07:17:39.424Z,63.50
2023-03-12T07:18:39.317Z,63.52
2023-03-12T07:19:40.269Z,63.54
2023-03-12T07:20:39.307Z,63.58
2023-03-12T07:21:39.312Z,63.55
2023-03-12T07:22:39.337Z,63.44
2023-03-12T07:23:39.275Z,63.36
2023-03-12T07:24:40.212Z,63.29
2023-03-12T07:25:39.252Z,63.16
2023-03-12T07:26:39.198Z,63.11
2023-03-12T07:27:39.284Z,63.02
2023-03-12T07:28:39.170Z,62.93
2023-03-12T07:29:40.112Z,62.89
2023-03-12T07:30:39.182Z,62.81
2023-03-12T07:31:39.234Z,62.80
2023-03-12T07:32:39.192Z,62.81
2023-03-12T07:33:39.330Z,62.89
2023-03-12T07:34:39.167Z,62.94
2023-03-12T07:35:40.148Z,62.98
2023-03-12T07:36:39.186Z,62.99
2023-03-12T07:37:39.122Z,62.97
2023-03-12T07:38:39.117Z,62.92
2023-03-12T07:39:39.135Z,62.74
2023-03-12T07:40:39.189Z,62.49
2023-03-12T07:41:39.964Z,62.27
2023-03-12T07:42:39.044Z,62.11
2023-03-12T07:43:39.093Z,62.03
2023-03-12T07:44:39.041Z,62.01
2023-03-12T07:45:39.109Z,61.98
2023-03-12T07:46:38.986Z,61.88
2023-03-12T07:47:40.155Z,61.74
2023-03-12T07:48:38.991Z,61.66
2023-03-12T07:49:38.990Z,61.58
2023-03-12T07:50:38.913Z,61.50
2023-03-12T07:51:38.909Z,61.43
2023-03-12T07:52:39.811Z,61.32
2023-03-12T07:53:38.972Z,61.19
2023-03-12T07:54:39.082Z,61.12
2023-03-12T07:57:17.924Z,61.17
2023-03-12T07:58:18.937Z,61.33
2023-03-12T07:59:17.866Z,61.37
2023-03-12T08:00:17.800Z,61.41
2023-03-12T08:01:18.719Z,61.41
2023-03-12T08:02:18.838Z,61.16
2023-03-12T08:03:18.872Z,60.98
2023-03-12T08:04:18.782Z,60.81
2023-03-12T08:05:17.782Z,60.63
2023-03-12T08:06:17.761Z,60.52
2023-03-12T08:07:17.741Z,60.41
2023-03-12T08:08:17.718Z,60.37
2023-03-12T08:09:17.672Z,60.41
2023-03-12T08:10:18.614Z,60.45
2023-03-12T08:11:17.699Z,60.49
2023-03-12T08:12:17.665Z,60.62
2023-03-12T08:13:17.715Z,60.73
2023-03-12T08:14:17.634Z,60.76
2023-03-12T08:15:18.582Z,60.70
2023-03-12T08:16:17.604Z,60.50
2023-03-12T08:17:17.567Z,60.34
2023-03-12T08:18:17.601Z,60.27
2023-03-12T08:19:17.543Z,60.27
2023-03-12T08:20:19.359Z,60.21
2023-03-12T08:21:17.588Z,60.20
2023-03-12T08:22:17.492Z,60.18
2023-03-12T08:23:17.562Z,60.17
2023-03-12T08:24:17.566Z,60.21
2023-03-12T08:25:17.438Z,60.18
2023-03-12T08:26:18.368Z,60.08
2023-03-12T08:27:17.407Z,59.93
2023-03-12T08:28:17.432Z,59.77
2023-03-12T08:29:17.506Z,59.72
2023-03-12T08:30:17.385Z,59.79
2023-03-12T08:31:18.391Z,59.85
2023-03-12T08:32:17.504Z,59.80
2023-03-12T08:33:17.795Z,59.65
2023-03-12T08:34:17.899Z,59.47
2023-03-12T08:35:17.757Z,59.24
2023-03-12T08:36:20.097Z,59.05
2023-03-12T08:37:17.285Z,58.87
2023-03-12T08:38:17.472Z,58.70
2023-03-12T08:39:17.337Z,58.63
2023-03-12T08:40:17.335Z,58.52
2023-03-12T08:41:17.266Z,58.29
2023-03-12T08:42:18.155Z,58.18
2023-03-12T08:43:17.293Z,58.14
2023-03-12T08:44:17.246Z,58.18
2023-03-12T08:45:17.242Z,58.29
2023-03-12T08:46:17.230Z,58.24
2023-03-12T08:47:18.081Z,58.16
2023-03-12T08:48:17.297Z,58.09
2023-03-12T08:49:17.138Z,57.94
2023-03-12T08:50:17.171Z,57.79
2023-03-12T08:51:17.144Z,57.78
2023-03-12T08:52:18.027Z,57.93
2023-03-12T08:53:17.196Z,58.14
2023-03-12T08:54:17.089Z,58.41
2023-03-12T08:55:17.085Z,58.75
2023-03-12T08:56:17.134Z,58.99
2023-03-12T08:57:18.004Z,59.26
2023-03-12T08:58:17.104Z,59.60
2023-03-12T08:59:17.027Z,59.83
2023-03-12T09:00:16.980Z,60.01
2023-03-12T09:01:17.087Z,60.12
2023-03-12T09:02:16.994Z,60.24
2023-03-12T09:03:17.996Z,60.42
2023-03-12T09:04:16.971Z,60.56
2023-03-12T09:05:16.950Z,60.50
2023-03-12T09:06:17.039Z,60.49
2023-03-12T09:08:56.141Z,59.99
2023-03-12T09:09:56.156Z,59.94
2023-03-12T09:10:56.148Z,59.66
2023-03-12T09:11:57.040Z,59.33
2023-03-12T09:12:56.071Z,58.94
2023-03-12T09:15:02.389Z,58.04
2023-03-12T09:15:41.256Z,58.13
2023-03-12T09:16:40.279Z,58.24
2023-03-12T09:17:40.209Z,58.17
2023-03-12T09:18:40.225Z,58.12
2023-03-12T09:19:41.140Z,58.20
2023-03-12T09:20:40.171Z,58.08
2023-03-12T09:21:40.284Z,57.91
2023-03-12T09:22:40.265Z,57.67
2023-03-12T09:23:40.132Z,57.46
2023-03-12T09:24:40.136Z,57.25
2023-03-12T09:25:41.060Z,57.31
2023-03-12T09:26:40.077Z,57.16
2023-03-12T09:27:40.080Z,56.93
2023-03-12T09:28:40.086Z,56.55
2023-03-12T09:29:53.464Z,56.14
2023-03-12T09:30:41.584Z,55.91
2023-03-12T09:31:40.989Z,55.75
2023-03-12T09:32:40.084Z,55.74
2023-03-12T09:33:40.026Z,55.84
2023-03-12T09:34:39.984Z,56.09
2023-03-12T09:35:39.988Z,56.43
2023-03-12T09:36:39.971Z,56.96
2023-03-12T09:37:40.918Z,57.57
2023-03-12T09:38:39.958Z,58.12
2023-03-12T09:39:39.903Z,58.08
2023-03-12T09:40:39.951Z,57.95
2023-03-12T09:41:39.944Z,57.92
2023-03-12T09:42:39.885Z,57.74
2023-03-12T09:43:40.827Z,57.30
2023-03-12T09:44:39.877Z,56.95
2023-03-12T09:45:39.863Z,56.62
2023-03-12T09:46:39.850Z,56.38
2023-03-12T09:47:39.806Z,56.16
2023-03-12T09:48:40.776Z,55.97
2023-03-12T09:49:39.793Z,55.81
2023-03-12T09:50:39.794Z,55.66
2023-03-12T09:51:39.786Z,55.67
2023-03-12T09:52:39.784Z,55.78
2023-03-12T09:53:40.686Z,55.99
2023-03-12T09:54:39.712Z,55.87
2023-03-12T09:55:39.728Z,55.68
2023-03-12T09:56:39.713Z,55.50
2023-03-12T09:57:39.749Z,55.26
2023-03-12T09:58:39.676Z,55.02
2023-03-12T09:59:40.713Z,54.53
2023-03-12T10:00:39.663Z,54.28
2023-03-12T10:01:39.650Z,54.13
2023-03-12T10:02:39.634Z,54.17
2023-03-12T10:03:39.678Z,54.27
2023-03-12T10:04:58.185Z,54.42
2023-03-12T10:05:41.094Z,54.66
2023-03-12T10:06:39.579Z,54.86
2023-03-12T10:07:39.543Z,54.67
2023-03-12T10:08:39.575Z,54.42
2023-03-12T10:09:39.539Z,54.28
2023-03-12T10:10:40.444Z,54.24
2023-03-12T10:11:39.533Z,54.28
2023-03-12T10:12:39.496Z,54.31
2023-03-12T10:13:39.509Z,54.47
2023-03-12T10:14:39.520Z,54.67
2023-03-12T10:15:39.490Z,54.89
2023-03-12T10:16:40.359Z,55.06
2023-03-12T10:17:39.437Z,55.13
2023-03-12T10:18:39.556Z,54.81
2023-03-12T10:19:39.417Z,54.74
2023-03-12T10:20:39.399Z,55.07
2023-03-12T10:21:40.335Z,55.18
2023-03-12T10:22:39.362Z,54.93
2023-03-12T10:23:39.378Z,54.53
2023-03-12T10:24:39.332Z,54.51
2023-03-12T10:25:39.323Z,54.63
2023-03-12T10:26:39.327Z,54.82
2023-03-12T10:27:40.243Z,54.52
2023-03-12T10:28:39.289Z,54.02
2023-03-12T10:29:39.313Z,53.81
2023-03-12T10:30:39.299Z,54.14
2023-03-12T10:31:39.293Z,54.52
2023-03-12T10:32:39.258Z,54.78
2023-03-12T10:33:40.156Z,54.60
2023-03-12T10:34:39.241Z,53.94
2023-03-12T10:35:39.220Z,53.85
2023-03-12T10:36:39.195Z,53.85
2023-03-12T10:37:39.185Z,53.66
2023-03-12T10:38:39.151Z,53.21
2023-03-12T10:39:40.162Z,53.17
2023-03-12T10:40:39.160Z,53.76
2023-03-12T10:41:39.129Z,54.51
2023-03-12T10:42:39.101Z,55.10
2023-03-12T10:43:39.096Z,55.81
2023-03-12T10:44:39.103Z,56.44
2023-03-12T10:45:39.998Z,56.99
2023-03-12T10:46:39.146Z,57.32
2023-03-12T10:47:39.076Z,56.99
2023-03-12T10:48:39.091Z,56.35
2023-03-12T10:49:39.010Z,55.70
2023-03-12T10:50:39.985Z,55.23
2023-03-12T10:51:39.003Z,54.75
2023-03-12T10:52:38.983Z,55.11
2023-03-12T10:53:38.978Z,55.54
2023-03-12T10:54:38.952Z,55.66
2023-03-12T10:55:38.949Z,55.60
2023-03-12T10:56:39.871Z,55.81
2023-03-12T10:57:38.913Z,56.09
2023-03-12T10:58:38.921Z,56.27
2023-03-12T10:59:38.967Z,55.84
2023-03-12T11:00:38.868Z,54.68
2023-03-12T11:01:39.819Z,53.35
2023-03-12T11:02:38.840Z,52.96
2023-03-12T11:03:38.871Z,53.14
2023-03-12T11:04:38.842Z,53.42
2023-03-12T11:05:38.866Z,53.94
2023-03-12T11:06:38.823Z,54.39
2023-03-12T11:07:39.774Z,54.40
2023-03-12T11:08:38.818Z,54.30
2023-03-12T11:09:38.856Z,54.54
2023-03-12T11:10:38.772Z,54.92
2023-03-12T11:11:38.744Z,55.18
2023-03-12T11:12:39.742Z,55.13
2023-03-12T11:13:38.758Z,55.13
2023-03-12T11:14:38.743Z,55.22
2023-03-12T11:15:38.772Z,55.42
2023-03-12T11:16:38.673Z,55.38
2023-03-12T11:17:38.675Z,55.18
2023-03-12T11:18:39.653Z,54.95
2023-03-12T11:19:38.645Z,54.76
2023-03-12T11:20:38.644Z,54.59
2023-03-12T11:21:38.600Z,54.33
2023-03-12T11:22:38.601Z,54.13
2023-03-12T11:23:38.607Z,54.14
2023-03-12T11:24:39.504Z,53.95
2023-03-12T11:25:38.597Z,53.71
2023-03-12T11:26:38.581Z,53.25
2023-03-12T11:27:38.544Z,51.95
2023-03-12T11:28:38.512Z,50.90
2023-03-12T11:29:39.460Z,50.67
2023-03-12T11:30:38.536Z,50.88
2023-03-12T11:31:38.551Z,51.35
2023-03-12T11:32:38.498Z,51.86
2023-03-12T11:33:38.460Z,52.49
2023-03-12T11:34:38.479Z,53.09
2023-03-12T11:35:39.404Z,53.67
2023-03-12T11:36:38.454Z,54.24
2023-03-12T11:37:40.385Z,54.69
2023-03-12T11:38:38.399Z,54.93
2023-03-12T11:39:38.372Z,55.08
2023-03-12T11:40:39.302Z,54.90
2023-03-12T11:41:38.369Z,54.73
2023-03-12T11:42:38.328Z,54.70
2023-03-12T11:43:43.543Z,55.03
2023-03-12T11:44:39.840Z,55.67
2023-03-12T11:45:38.300Z,56.34
2023-03-12T11:46:39.297Z,56.77
2023-03-12T11:47:38.345Z,57.05
2023-03-12T11:48:38.347Z,57.21
2023-03-12T11:49:38.239Z,57.36
2023-03-12T11:50:38.247Z,57.46
2023-03-12T11:51:39.174Z,57.54
2023-03-12T11:52:38.253Z,57.57
2023-03-12T11:53:38.224Z,57.64
2023-03-12T11:54:38.192Z,57.74
2023-03-12T11:55:38.197Z,57.90
2023-03-12T11:56:38.174Z,57.88
2023-03-12T11:57:39.072Z,57.67
2023-03-12T11:58:38.152Z,57.35
2023-03-12T11:59:38.113Z,56.91
2023-03-12T12:00:38.125Z,56.36
2023-03-12T12:01:38.127Z,55.71
2023-03-12T12:02:39.009Z,54.85
2023-03-12T12:03:38.121Z,54.06
2023-03-12T12:04:38.082Z,53.54
2023-03-12T12:05:38.053Z,53.29
2023-03-12T12:06:38.044Z,53.42
2023-03-12T12:07:38.974Z,53.59
2023-03-12T12:08:37.991Z,53.84
2023-03-12T12:09:37.993Z,54.17
2023-03-12T12:10:37.998Z,54.68
2023-03-12T12:11:37.995Z,55.25
2023-03-12T12:12:37.951Z,55.72
2023-03-12T12:13:38.885Z,56.05
2023-03-12T12:14:37.941Z,56.23
2023-03-12T12:15:37.931Z,56.34
2023-03-12T12:16:37.944Z,56.49
2023-03-12T12:17:37.927Z,56.72
2023-03-12T12:18:37.894Z,56.86
2023-03-12T12:19:38.797Z,56.88
2023-03-12T12:20:37.840Z,56.96
2023-03-12T12:21:37.850Z,56.72
2023-03-12T12:22:37.812Z,56.11
2023-03-12T12:23:37.826Z,55.61
2023-03-12T12:24:37.827Z,55.51
2023-03-12T12:25:38.723Z,55.66
2023-03-12T12:26:37.777Z,55.91
2023-03-12T12:27:37.781Z,56.16
2023-03-12T12:28:37.776Z,56.34
2023-03-12T12:29:37.760Z,56.44
2023-03-12T12:30:37.731Z,56.46
2023-03-12T12:31:38.703Z,56.53
2023-03-12T12:32:37.726Z,56.60
2023-03-12T12:33:37.721Z,56.60
2023-03-12T12:34:37.691Z,56.77
2023-03-12T12:35:37.740Z,56.93
2023-03-12T12:36:37.640Z,56.96
2023-03-12T12:37:38.585Z,56.86
2023-03-12T12:38:37.648Z,56.67
2023-03-12T12:39:37.629Z,56.54
2023-03-12T12:40:37.600Z,56.45
2023-03-12T12:41:37.622Z,56.45
2023-03-12T12:42:37.636Z,56.46
2023-03-12T12:43:38.529Z,56.43
2023-03-12T12:44:37.569Z,56.40
2023-03-12T12:45:37.623Z,56.40
2023-03-12T12:46:37.537Z,56.47
2023-03-12T12:47:37.541Z,56.37
2023-03-12T12:48:38.462Z,56.29
2023-03-12T12:49:37.492Z,56.25
2023-03-12T12:50:37.468Z,56.35
2023-03-12T12:51:37.494Z,56.54
2023-03-12T12:52:37.454Z,56.72
2023-03-12T12:53:38.404Z,56.92
2023-03-12T12:54:37.424Z,57.05
2023-03-12T12:55:37.434Z,57.13
2023-03-12T12:56:37.414Z,57.22
2023-03-12T12:57:37.401Z,57.49
2023-03-12T12:58:37.354Z,57.97
2023-03-12T12:59:38.334Z,58.53
2023-03-12T13:00:37.401Z,58.90
2023-03-12T13:01:37.357Z,59.06